sensor_id;sensor_type;location;lat;lon;timestamp;P1;durP1;ratioP1;P2;durP2;ratioP2
16760;SDS011;8498;52.516;13.790;2023-08-06T00:01:31;9.98;;;6.30;;
16760;SDS011;8498;52.516;13.790;2023-08-06T00:06:53;8.00;;;5.95;;
16760;SDS011;8498;52.516;13.790;2023-08-06T00:12:16;6.40;;;5.80;;
16760;SDS011;8498;52.516;13.790;2023-08-06T00:17:38;10.38;;;7.28;;
16760;SDS011;8498;52.516;13.790;2023-08-06T00:23:01;11.50;;;6.95;;
16760;SDS011;8498;52.516;13.790;2023-08-06T00:28:24;8.23;;;7.07;;
16760;SDS011;8498;52.516;13.790;2023-08-06T00:33:47;9.02;;;6.85;;
16760;SDS011;8498;52.516;13.790;2023-08-06T00:39:09;10.55;;;6.95;;
16760;SDS011;8498;52.516;13.790;2023-08-06T00:44:31;10.30;;;7.82;;
16760;SDS011;8498;52.516;13.790;2023-08-06T00:49:55;9.50;;;7.10;;
16760;SDS011;8498;52.516;13.790;2023-08-06T00:55:17;10.13;;;7.15;;
16760;SDS011;8498;52.516;13.790;2023-08-06T01:00:40;9.30;;;7.32;;
16760;SDS011;8498;52.516;13.790;2023-08-06T01:06:03;9.88;;;7.43;;
16760;SDS011;8498;52.516;13.790;2023-08-06T01:16:51;10.52;;;7.05;;
16760;SDS011;8498;52.516;13.790;2023-08-06T01:22:16;10.13;;;7.25;;
16760;SDS011;8498;52.516;13.790;2023-08-06T01:27:43;11.77;;;7.68;;
16760;SDS011;8498;52.516;13.790;2023-08-06T01:33:12;10.05;;;7.70;;
16760;SDS011;8498;52.516;13.790;2023-08-06T01:38:38;11.50;;;8.30;;
16760;SDS011;8498;52.516;13.790;2023-08-06T01:44:01;11.65;;;8.30;;
16760;SDS011;8498;52.516;13.790;2023-08-06T01:49:23;13.30;;;8.77;;
16760;SDS011;8498;52.516;13.790;2023-08-06T01:54:46;9.35;;;7.75;;
16760;SDS011;8498;52.516;13.790;2023-08-06T02:00:08;12.77;;;8.25;;
16760;SDS011;8498;52.516;13.790;2023-08-06T02:05:34;11.35;;;7.97;;
16760;SDS011;8498;52.516;13.790;2023-08-06T02:10:57;10.07;;;7.35;;
16760;SDS011;8498;52.516;13.790;2023-08-06T02:16:20;10.60;;;7.50;;
16760;SDS011;8498;52.516;13.790;2023-08-06T02:21:42;7.80;;;6.53;;
16760;SDS011;8498;52.516;13.790;2023-08-06T02:27:05;8.52;;;6.72;;
16760;SDS011;8498;52.516;13.790;2023-08-06T02:32:28;9.32;;;7.60;;
16760;SDS011;8498;52.516;13.790;2023-08-06T02:37:54;6.97;;;5.72;;
16760;SDS011;8498;52.516;13.790;2023-08-06T02:43:17;6.40;;;5.72;;
16760;SDS011;8498;52.516;13.790;2023-08-06T02:48:39;11.93;;;5.68;;
16760;SDS011;8498;52.516;13.790;2023-08-06T02:54:02;7.50;;;5.70;;
16760;SDS011;8498;52.516;13.790;2023-08-06T02:59:26;7.70;;;5.90;;
16760;SDS011;8498;52.516;13.790;2023-08-06T03:05:05;7.50;;;5.68;;
16760;SDS011;8498;52.516;13.790;2023-08-06T03:10:33;8.82;;;5.78;;
16760;SDS011;8498;52.516;13.790;2023-08-06T03:15:58;7.18;;;5.65;;
16760;SDS011;8498;52.516;13.790;2023-08-06T03:21:23;9.00;;;5.60;;
16760;SDS011;8498;52.516;13.790;2023-08-06T03:26:46;10.73;;;6.28;;
16760;SDS011;8498;52.516;13.790;2023-08-06T03:32:09;6.68;;;5.95;;
16760;SDS011;8498;52.516;13.790;2023-08-06T03:37:32;8.50;;;5.57;;
16760;SDS011;8498;52.516;13.790;2023-08-06T03:42:54;11.10;;;6.18;;
16760;SDS011;8498;52.516;13.790;2023-08-06T03:48:17;12.57;;;6.35;;
16760;SDS011;8498;52.516;13.790;2023-08-06T03:53:39;8.32;;;5.97;;
16760;SDS011;8498;52.516;13.790;2023-08-06T03:59:02;10.02;;;6.05;;
16760;SDS011;8498;52.516;13.790;2023-08-06T04:04:25;8.13;;;5.60;;
16760;SDS011;8498;52.516;13.790;2023-08-06T04:09:51;6.15;;;5.55;;
16760;SDS011;8498;52.516;13.790;2023-08-06T04:15:15;10.48;;;5.43;;
16760;SDS011;8498;52.516;13.790;2023-08-06T04:20:43;7.60;;;5.90;;
16760;SDS011;8498;52.516;13.790;2023-08-06T04:26:07;7.20;;;5.30;;
16760;SDS011;8498;52.516;13.790;2023-08-06T04:31:30;6.10;;;4.88;;
16760;SDS011;8498;52.516;13.790;2023-08-06T04:36:54;7.28;;;5.07;;
16760;SDS011;8498;52.516;13.790;2023-08-06T04:42:18;6.00;;;5.03;;
16760;SDS011;8498;52.516;13.790;2023-08-06T04:47:41;11.20;;;5.28;;
16760;SDS011;8498;52.516;13.790;2023-08-06T04:53:04;6.80;;;5.10;;
16760;SDS011;8498;52.516;13.790;2023-08-06T04:58:26;7.35;;;5.43;;
16760;SDS011;8498;52.516;13.790;2023-08-06T05:03:49;7.25;;;5.05;;
16760;SDS011;8498;52.516;13.790;2023-08-06T05:09:11;5.70;;;5.00;;
16760;SDS011;8498;52.516;13.790;2023-08-06T05:14:34;6.45;;;4.50;;
16760;SDS011;8498;52.516;13.790;2023-08-06T05:19:56;10.77;;;5.03;;
16760;SDS011;8498;52.516;13.790;2023-08-06T05:25:20;9.70;;;5.20;;
16760;SDS011;8498;52.516;13.790;2023-08-06T05:30:42;7.82;;;5.32;;
16760;SDS011;8498;52.516;13.790;2023-08-06T05:36:04;7.80;;;5.97;;
16760;SDS011;8498;52.516;13.790;2023-08-06T05:41:27;6.53;;;5.18;;
16760;SDS011;8498;52.516;13.790;2023-08-06T05:46:50;9.13;;;5.78;;
16760;SDS011;8498;52.516;13.790;2023-08-06T05:52:12;9.38;;;6.47;;
16760;SDS011;8498;52.516;13.790;2023-08-06T05:57:34;7.45;;;5.75;;
16760;SDS011;8498;52.516;13.790;2023-08-06T06:02:57;7.80;;;6.05;;
16760;SDS011;8498;52.516;13.790;2023-08-06T06:08:19;6.50;;;5.57;;
16760;SDS011;8498;52.516;13.790;2023-08-06T06:13:42;8.25;;;6.03;;
16760;SDS011;8498;52.516;13.790;2023-08-06T06:19:04;6.75;;;5.25;;
16760;SDS011;8498;52.516;13.790;2023-08-06T06:24:27;9.55;;;5.63;;
16760;SDS011;8498;52.516;13.790;2023-08-06T06:29:49;9.85;;;6.07;;
16760;SDS011;8498;52.516;13.790;2023-08-06T06:35:12;9.85;;;6.40;;
16760;SDS011;8498;52.516;13.790;2023-08-06T06:40:34;9.82;;;7.13;;
16760;SDS011;8498;52.516;13.790;2023-08-06T06:45:57;11.13;;;7.72;;
16760;SDS011;8498;52.516;13.790;2023-08-06T06:51:23;9.73;;;7.45;;
16760;SDS011;8498;52.516;13.790;2023-08-06T06:56:45;9.48;;;7.45;;
16760;SDS011;8498;52.516;13.790;2023-08-06T07:02:08;8.00;;;6.10;;
16760;SDS011;8498;52.516;13.790;2023-08-06T07:07:30;8.48;;;6.18;;
16760;SDS011;8498;52.516;13.790;2023-08-06T07:12:53;8.13;;;5.47;;
16760;SDS011;8498;52.516;13.790;2023-08-06T07:18:15;5.93;;;5.22;;
16760;SDS011;8498;52.516;13.790;2023-08-06T07:23:38;6.72;;;5.25;;
16760;SDS011;8498;52.516;13.790;2023-08-06T07:29:00;7.10;;;5.55;;
16760;SDS011;8498;52.516;13.790;2023-08-06T07:34:23;6.00;;;5.40;;
16760;SDS011;8498;52.516;13.790;2023-08-06T07:39:45;7.10;;;5.60;;
16760;SDS011;8498;52.516;13.790;2023-08-06T07:45:07;6.40;;;5.75;;
16760;SDS011;8498;52.516;13.790;2023-08-06T07:50:31;6.90;;;5.82;;
16760;SDS011;8498;52.516;13.790;2023-08-06T07:55:53;7.82;;;6.05;;
16760;SDS011;8498;52.516;13.790;2023-08-06T08:01:15;10.18;;;6.10;;
16760;SDS011;8498;52.516;13.790;2023-08-06T08:06:39;8.73;;;6.22;;
16760;SDS011;8498;52.516;13.790;2023-08-06T08:12:01;8.77;;;6.05;;
16760;SDS011;8498;52.516;13.790;2023-08-06T08:17:25;8.95;;;6.75;;
16760;SDS011;8498;52.516;13.790;2023-08-06T08:22:47;9.75;;;6.90;;
16760;SDS011;8498;52.516;13.790;2023-08-06T08:28:10;10.55;;;6.80;;
16760;SDS011;8498;52.516;13.790;2023-08-06T08:33:32;8.38;;;6.65;;
16760;SDS011;8498;52.516;13.790;2023-08-06T08:38:55;10.85;;;7.07;;
16760;SDS011;8498;52.516;13.790;2023-08-06T08:44:18;8.88;;;6.97;;
16760;SDS011;8498;52.516;13.790;2023-08-06T08:49:41;10.63;;;7.85;;
16760;SDS011;8498;52.516;13.790;2023-08-06T08:55:04;12.25;;;7.35;;
16760;SDS011;8498;52.516;13.790;2023-08-06T09:00:29;11.90;;;8.30;;
16760;SDS011;8498;52.516;13.790;2023-08-06T09:05:53;14.20;;;8.55;;
16760;SDS011;8498;52.516;13.790;2023-08-06T09:11:16;11.48;;;8.80;;
16760;SDS011;8498;52.516;13.790;2023-08-06T09:16:40;18.38;;;11.00;;
16760;SDS011;8498;52.516;13.790;2023-08-06T09:22:03;15.40;;;8.77;;
16760;SDS011;8498;52.516;13.790;2023-08-06T09:27:33;17.13;;;8.82;;
16760;SDS011;8498;52.516;13.790;2023-08-06T09:32:55;12.27;;;8.20;;
16760;SDS011;8498;52.516;13.790;2023-08-06T09:38:17;12.45;;;8.65;;
16760;SDS011;8498;52.516;13.790;2023-08-06T09:43:40;11.65;;;7.93;;
16760;SDS011;8498;52.516;13.790;2023-08-06T09:49:03;10.05;;;7.65;;
16760;SDS011;8498;52.516;13.790;2023-08-06T09:54:30;10.48;;;7.30;;
16760;SDS011;8498;52.516;13.790;2023-08-06T09:59:54;10.30;;;7.55;;
16760;SDS011;8498;52.516;13.790;2023-08-06T10:05:17;10.82;;;8.00;;
16760;SDS011;8498;52.516;13.790;2023-08-06T10:10:40;9.50;;;7.47;;
16760;SDS011;8498;52.516;13.790;2023-08-06T10:16:03;9.13;;;7.57;;
16760;SDS011;8498;52.516;13.790;2023-08-06T10:21:28;11.07;;;7.50;;
16760;SDS011;8498;52.516;13.790;2023-08-06T10:26:54;9.82;;;7.90;;
16760;SDS011;8498;52.516;13.790;2023-08-06T10:32:20;12.23;;;8.07;;
16760;SDS011;8498;52.516;13.790;2023-08-06T10:37:44;9.20;;;7.70;;
16760;SDS011;8498;52.516;13.790;2023-08-06T10:43:07;10.23;;;7.43;;
16760;SDS011;8498;52.516;13.790;2023-08-06T10:48:32;11.35;;;7.90;;
16760;SDS011;8498;52.516;13.790;2023-08-06T10:53:58;11.68;;;7.05;;
16760;SDS011;8498;52.516;13.790;2023-08-06T10:59:24;8.52;;;6.85;;
16760;SDS011;8498;52.516;13.790;2023-08-06T11:04:48;10.95;;;7.70;;
16760;SDS011;8498;52.516;13.790;2023-08-06T11:10:12;10.75;;;7.65;;
16760;SDS011;8498;52.516;13.790;2023-08-06T11:15:37;10.55;;;7.85;;
16760;SDS011;8498;52.516;13.790;2023-08-06T11:21:00;10.02;;;7.80;;
16760;SDS011;8498;52.516;13.790;2023-08-06T11:26:23;11.45;;;7.95;;
16760;SDS011;8498;52.516;13.790;2023-08-06T11:31:46;14.20;;;8.23;;
16760;SDS011;8498;52.516;13.790;2023-08-06T11:37:08;11.65;;;7.43;;
16760;SDS011;8498;52.516;13.790;2023-08-06T11:42:32;9.48;;;7.22;;
16760;SDS011;8498;52.516;13.790;2023-08-06T11:47:56;12.55;;;7.22;;
16760;SDS011;8498;52.516;13.790;2023-08-06T11:53:18;9.70;;;7.20;;
16760;SDS011;8498;52.516;13.790;2023-08-06T11:58:41;11.27;;;7.97;;
16760;SDS011;8498;52.516;13.790;2023-08-06T12:04:04;10.32;;;7.47;;
16760;SDS011;8498;52.516;13.790;2023-08-06T12:09:27;11.40;;;8.05;;
16760;SDS011;8498;52.516;13.790;2023-08-06T12:14:50;11.93;;;7.88;;
16760;SDS011;8498;52.516;13.790;2023-08-06T12:20:12;11.95;;;7.93;;
16760;SDS011;8498;52.516;13.790;2023-08-06T12:25:35;11.52;;;7.70;;
16760;SDS011;8498;52.516;13.790;2023-08-06T12:30:58;14.55;;;8.00;;
16760;SDS011;8498;52.516;13.790;2023-08-06T12:36:21;11.20;;;7.88;;
16760;SDS011;8498;52.516;13.790;2023-08-06T12:41:43;10.30;;;7.00;;
16760;SDS011;8498;52.516;13.790;2023-08-06T12:47:08;11.27;;;7.03;;
16760;SDS011;8498;52.516;13.790;2023-08-06T12:52:30;9.45;;;7.32;;
16760;SDS011;8498;52.516;13.790;2023-08-06T12:57:53;10.48;;;7.35;;
16760;SDS011;8498;52.516;13.790;2023-08-06T13:03:19;11.40;;;7.05;;
16760;SDS011;8498;52.516;13.790;2023-08-06T13:08:42;10.73;;;6.80;;
16760;SDS011;8498;52.516;13.790;2023-08-06T13:14:05;9.70;;;6.25;;
16760;SDS011;8498;52.516;13.790;2023-08-06T13:19:28;9.57;;;6.47;;
16760;SDS011;8498;52.516;13.790;2023-08-06T13:24:51;9.98;;;6.63;;
16760;SDS011;8498;52.516;13.790;2023-08-06T13:30:13;9.23;;;6.45;;
16760;SDS011;8498;52.516;13.790;2023-08-06T13:35:35;12.75;;;6.45;;
16760;SDS011;8498;52.516;13.790;2023-08-06T13:40:58;7.05;;;5.32;;
16760;SDS011;8498;52.516;13.790;2023-08-06T13:46:20;9.07;;;5.28;;
16760;SDS011;8498;52.516;13.790;2023-08-06T13:51:46;8.20;;;5.30;;
16760;SDS011;8498;52.516;13.790;2023-08-06T13:57:09;7.00;;;5.03;;
16760;SDS011;8498;52.516;13.790;2023-08-06T14:02:31;6.60;;;4.53;;
16760;SDS011;8498;52.516;13.790;2023-08-06T14:07:54;6.35;;;4.55;;
16760;SDS011;8498;52.516;13.790;2023-08-06T14:13:17;5.05;;;3.92;;
16760;SDS011;8498;52.516;13.790;2023-08-06T14:18:40;7.15;;;3.70;;
16760;SDS011;8498;52.516;13.790;2023-08-06T14:24:03;4.03;;;3.50;;
16760;SDS011;8498;52.516;13.790;2023-08-06T14:29:26;6.95;;;3.95;;
16760;SDS011;8498;52.516;13.790;2023-08-06T14:34:48;3.97;;;3.60;;
16760;SDS011;8498;52.516;13.790;2023-08-06T14:40:11;6.15;;;3.60;;
16760;SDS011;8498;52.516;13.790;2023-08-06T14:45:37;3.85;;;3.40;;
16760;SDS011;8498;52.516;13.790;2023-08-06T14:51:01;7.75;;;3.75;;
16760;SDS011;8498;52.516;13.790;2023-08-06T14:56:23;7.10;;;3.95;;
16760;SDS011;8498;52.516;13.790;2023-08-06T15:01:46;3.70;;;3.40;;
16760;SDS011;8498;52.516;13.790;2023-08-06T15:07:09;4.05;;;3.60;;
16760;SDS011;8498;52.516;13.790;2023-08-06T15:12:31;4.00;;;3.63;;
16760;SDS011;8498;52.516;13.790;2023-08-06T15:17:54;4.78;;;3.70;;
16760;SDS011;8498;52.516;13.790;2023-08-06T15:23:19;6.18;;;3.95;;
16760;SDS011;8498;52.516;13.790;2023-08-06T15:28:41;4.72;;;3.45;;
16760;SDS011;8498;52.516;13.790;2023-08-06T15:34:04;4.35;;;3.25;;
16760;SDS011;8498;52.516;13.790;2023-08-06T15:39:27;5.47;;;3.38;;
16760;SDS011;8498;52.516;13.790;2023-08-06T15:44:49;3.30;;;2.33;;
16760;SDS011;8498;52.516;13.790;2023-08-06T15:50:11;2.40;;;2.20;;
16760;SDS011;8498;52.516;13.790;2023-08-06T15:55:34;2.38;;;2.20;;
16760;SDS011;8498;52.516;13.790;2023-08-06T16:01:00;3.50;;;3.20;;
16760;SDS011;8498;52.516;13.790;2023-08-06T16:06:22;5.50;;;2.65;;
16760;SDS011;8498;52.516;13.790;2023-08-06T16:11:46;3.38;;;3.08;;
16760;SDS011;8498;52.516;13.790;2023-08-06T16:17:09;3.65;;;2.88;;
16760;SDS011;8498;52.516;13.790;2023-08-06T16:22:32;3.97;;;2.75;;
16760;SDS011;8498;52.516;13.790;2023-08-06T16:27:57;2.75;;;2.38;;
16760;SDS011;8498;52.516;13.790;2023-08-06T16:33:20;3.42;;;2.90;;
16760;SDS011;8498;52.516;13.790;2023-08-06T16:38:43;2.63;;;2.42;;
16760;SDS011;8498;52.516;13.790;2023-08-06T16:44:05;3.97;;;2.58;;
16760;SDS011;8498;52.516;13.790;2023-08-06T16:49:30;3.38;;;2.72;;
16760;SDS011;8498;52.516;13.790;2023-08-06T16:54:52;3.00;;;2.70;;
16760;SDS011;8498;52.516;13.790;2023-08-06T17:00:14;3.20;;;2.50;;
16760;SDS011;8498;52.516;13.790;2023-08-06T17:05:37;3.15;;;2.85;;
16760;SDS011;8498;52.516;13.790;2023-08-06T17:11:02;6.25;;;2.97;;
16760;SDS011;8498;52.516;13.790;2023-08-06T17:16:25;3.35;;;3.00;;
16760;SDS011;8498;52.516;13.790;2023-08-06T17:21:47;4.28;;;2.60;;
16760;SDS011;8498;52.516;13.790;2023-08-06T17:27:10;2.92;;;2.33;;
16760;SDS011;8498;52.516;13.790;2023-08-06T17:32:32;3.95;;;2.53;;
16760;SDS011;8498;52.516;13.790;2023-08-06T17:37:55;2.58;;;2.38;;
16760;SDS011;8498;52.516;13.790;2023-08-06T17:43:19;2.88;;;2.22;;
16760;SDS011;8498;52.516;13.790;2023-08-06T17:48:42;5.28;;;2.50;;
16760;SDS011;8498;52.516;13.790;2023-08-06T17:54:05;2.63;;;2.43;;
16760;SDS011;8498;52.516;13.790;2023-08-06T17:59:27;4.43;;;2.65;;
16760;SDS011;8498;52.516;13.790;2023-08-06T18:04:49;3.92;;;2.85;;
16760;SDS011;8498;52.516;13.790;2023-08-06T18:10:12;4.68;;;2.83;;
16760;SDS011;8498;52.516;13.790;2023-08-06T18:15:35;4.35;;;3.25;;
16760;SDS011;8498;52.516;13.790;2023-08-06T18:20:57;5.85;;;3.10;;
16760;SDS011;8498;52.516;13.790;2023-08-06T18:26:20;5.35;;;2.95;;
16760;SDS011;8498;52.516;13.790;2023-08-06T18:31:43;3.17;;;2.90;;
16760;SDS011;8498;52.516;13.790;2023-08-06T18:37:06;4.53;;;2.70;;
16760;SDS011;8498;52.516;13.790;2023-08-06T18:42:29;5.97;;;2.60;;
16760;SDS011;8498;52.516;13.790;2023-08-06T18:47:51;3.50;;;2.90;;
16760;SDS011;8498;52.516;13.790;2023-08-06T18:53:14;5.77;;;2.63;;
16760;SDS011;8498;52.516;13.790;2023-08-06T18:58:36;3.60;;;2.77;;
16760;SDS011;8498;52.516;13.790;2023-08-06T19:03:59;4.77;;;2.90;;
16760;SDS011;8498;52.516;13.790;2023-08-06T19:09:21;4.22;;;2.85;;
16760;SDS011;8498;52.516;13.790;2023-08-06T19:14:44;3.17;;;2.87;;
16760;SDS011;8498;52.516;13.790;2023-08-06T19:20:07;5.07;;;2.65;;
16760;SDS011;8498;52.516;13.790;2023-08-06T19:25:30;3.57;;;3.00;;
16760;SDS011;8498;52.516;13.790;2023-08-06T19:30:54;6.27;;;3.50;;
16760;SDS011;8498;52.516;13.790;2023-08-06T19:36:16;4.77;;;3.63;;
16760;SDS011;8498;52.516;13.790;2023-08-06T19:41:39;4.97;;;3.13;;
16760;SDS011;8498;52.516;13.790;2023-08-06T19:47:01;4.90;;;3.10;;
16760;SDS011;8498;52.516;13.790;2023-08-06T19:52:25;4.13;;;3.20;;
16760;SDS011;8498;52.516;13.790;2023-08-06T19:57:47;7.10;;;3.17;;
16760;SDS011;8498;52.516;13.790;2023-08-06T20:03:09;5.70;;;2.83;;
16760;SDS011;8498;52.516;13.790;2023-08-06T20:08:32;4.53;;;2.78;;
16760;SDS011;8498;52.516;13.790;2023-08-06T20:13:55;4.13;;;2.77;;
16760;SDS011;8498;52.516;13.790;2023-08-06T20:19:17;9.77;;;3.23;;
16760;SDS011;8498;52.516;13.790;2023-08-06T20:24:40;6.77;;;3.20;;
16760;SDS011;8498;52.516;13.790;2023-08-06T20:30:03;5.13;;;2.87;;
16760;SDS011;8498;52.516;13.790;2023-08-06T20:35:26;3.23;;;2.90;;
16760;SDS011;8498;52.516;13.790;2023-08-06T20:40:48;5.37;;;2.80;;
16760;SDS011;8498;52.516;13.790;2023-08-06T20:46:12;3.30;;;2.87;;
16760;SDS011;8498;52.516;13.790;2023-08-06T20:51:34;5.43;;;3.07;;
16760;SDS011;8498;52.516;13.790;2023-08-06T20:56:57;3.40;;;3.10;;
16760;SDS011;8498;52.516;13.790;2023-08-06T21:02:20;4.40;;;3.33;;
16760;SDS011;8498;52.516;13.790;2023-08-06T21:07:44;4.47;;;2.90;;
16760;SDS011;8498;52.516;13.790;2023-08-06T21:13:06;3.53;;;2.60;;
16760;SDS011;8498;52.516;13.790;2023-08-06T21:18:30;2.57;;;2.37;;
16760;SDS011;8498;52.516;13.790;2023-08-06T21:23:55;2.90;;;2.40;;
16760;SDS011;8498;52.516;13.790;2023-08-06T21:29:18;2.77;;;2.00;;
16760;SDS011;8498;52.516;13.790;2023-08-06T21:34:40;4.03;;;2.73;;
16760;SDS011;8498;52.516;13.790;2023-08-06T21:40:03;3.23;;;1.87;;
16760;SDS011;8498;52.516;13.790;2023-08-06T21:45:26;9.43;;;2.20;;
16760;SDS011;8498;52.516;13.790;2023-08-06T21:50:48;3.10;;;2.13;;
16760;SDS011;8498;52.516;13.790;2023-08-06T21:56:11;5.33;;;2.80;;
16760;SDS011;8498;52.516;13.790;2023-08-06T22:01:34;3.17;;;1.90;;
16760;SDS011;8498;52.516;13.790;2023-08-06T22:06:57;5.40;;;2.57;;
16760;SDS011;8498;52.516;13.790;2023-08-06T22:12:19;5.30;;;3.20;;
16760;SDS011;8498;52.516;13.790;2023-08-06T22:17:42;3.80;;;3.10;;
16760;SDS011;8498;52.516;13.790;2023-08-06T22:23:05;5.10;;;2.00;;
16760;SDS011;8498;52.516;13.790;2023-08-06T22:28:27;3.00;;;2.20;;
16760;SDS011;8498;52.516;13.790;2023-08-06T22:33:50;3.37;;;1.97;;
16760;SDS011;8498;52.516;13.790;2023-08-06T22:39:12;4.20;;;2.13;;
16760;SDS011;8498;52.516;13.790;2023-08-06T22:44:35;2.17;;;2.00;;
16760;SDS011;8498;52.516;13.790;2023-08-06T22:49:57;2.63;;;1.90;;
16760;SDS011;8498;52.516;13.790;2023-08-06T22:55:20;6.10;;;2.20;;
16760;SDS011;8498;52.516;13.790;2023-08-06T23:01:03;2.63;;;2.40;;
16760;SDS011;8498;52.516;13.790;2023-08-06T23:06:26;2.33;;;1.93;;
16760;SDS011;8498;52.516;13.790;2023-08-06T23:11:49;4.27;;;2.10;;
16760;SDS011;8498;52.516;13.790;2023-08-06T23:17:11;3.97;;;2.23;;
16760;SDS011;8498;52.516;13.790;2023-08-06T23:22:34;3.03;;;2.00;;
16760;SDS011;8498;52.516;13.790;2023-08-06T23:27:56;2.83;;;1.97;;
16760;SDS011;8498;52.516;13.790;2023-08-06T23:33:18;1.80;;;1.70;;
16760;SDS011;8498;52.516;13.790;2023-08-06T23:38:41;3.00;;;2.13;;
16760;SDS011;8498;52.516;13.790;2023-08-06T23:44:03;3.73;;;2.93;;
16760;SDS011;8498;52.516;13.790;2023-08-06T23:49:25;4.40;;;1.80;;
16760;SDS011;8498;52.516;13.790;2023-08-06T23:54:48;4.07;;;2.00;;
